Haddam, Connecticut
Current Conditions -  °F | °C
As of 7:15 PM on Sunday 25 Jan 2015 (Local Time) from KSNC Reporting Station
Clear Clear  
Wind Chill: 23°   Ceiling: Unl
Heat Index: 30°   Visibility: 10mi
Dew Point: 10°   Wind: 7mph
Humidity: 44%   Direction: 360°N
Pressure: 29.9"   Gusts: NA
Location:  41.48°N, 72.51°W
Report Text: KSNC 260015Z AUTO 36006KT 10SM CLR M01/M12 A2990 RMK AO2
Loading
Personal Weather Stations






























Interactive Weather Map New forecast layout! Learn more

10-Day Weather Forecast

Advertisements
Track Severe Weather on mobile